sensor_id;sensor_type;location;lat;lon;timestamp;temperature;humidity
77100;SHT31;66602;48.922;2.414;2023-08-20T00:00:32;19.74;76.97
77100;SHT31;66602;48.922;2.414;2023-08-20T00:03:04;19.73;76.43
77100;SHT31;66602;48.922;2.414;2023-08-20T00:05:34;19.77;76.59
77100;SHT31;66602;48.922;2.414;2023-08-20T00:08:00;19.78;76.20
77100;SHT31;66602;48.922;2.414;2023-08-20T00:10:25;19.84;76.15
77100;SHT31;66602;48.922;2.414;2023-08-20T00:12:51;19.91;75.96
77100;SHT31;66602;48.922;2.414;2023-08-20T00:15:16;19.89;76.03
77100;SHT31;66602;48.922;2.414;2023-08-20T00:17:44;19.91;75.95
77100;SHT31;66602;48.922;2.414;2023-08-20T00:20:10;19.89;76.00
77100;SHT31;66602;48.922;2.414;2023-08-20T00:22:41;19.92;75.99
77100;SHT31;66602;48.922;2.414;2023-08-20T00:25:08;19.91;76.03
77100;SHT31;66602;48.922;2.414;2023-08-20T00:27:33;19.92;76.31
77100;SHT31;66602;48.922;2.414;2023-08-20T00:29:59;19.82;76.50
77100;SHT31;66602;48.922;2.414;2023-08-20T00:32:24;19.75;76.42
77100;SHT31;66602;48.922;2.414;2023-08-20T00:34:50;19.63;76.93
77100;SHT31;66602;48.922;2.414;2023-08-20T00:37:16;19.49;77.46
77100;SHT31;66602;48.922;2.414;2023-08-20T00:39:41;19.34;77.74
77100;SHT31;66602;48.922;2.414;2023-08-20T00:42:07;19.24;78.09
77100;SHT31;66602;48.922;2.414;2023-08-20T00:44:34;19.17;78.34
77100;SHT31;66602;48.922;2.414;2023-08-20T00:47:01;19.15;78.48
77100;SHT31;66602;48.922;2.414;2023-08-20T00:49:26;19.05;78.72
77100;SHT31;66602;48.922;2.414;2023-08-20T00:51:53;19.02;79.05
77100;SHT31;66602;48.922;2.414;2023-08-20T00:54:20;19.00;79.28
77100;SHT31;66602;48.922;2.414;2023-08-20T00:56:46;18.98;79.66
77100;SHT31;66602;48.922;2.414;2023-08-20T00:59:12;18.98;79.58
77100;SHT31;66602;48.922;2.414;2023-08-20T01:01:38;18.99;79.71
77100;SHT31;66602;48.922;2.414;2023-08-20T01:04:03;18.98;79.81
77100;SHT31;66602;48.922;2.414;2023-08-20T01:07:04;18.88;79.76
77100;SHT31;66602;48.922;2.414;2023-08-20T01:12:02;18.65;80.48
77100;SHT31;66602;48.922;2.414;2023-08-20T01:14:28;18.55;80.97
77100;SHT31;66602;48.922;2.414;2023-08-20T01:16:53;18.48;81.42
77100;SHT31;66602;48.922;2.414;2023-08-20T01:19:21;18.37;81.77
77100;SHT31;66602;48.922;2.414;2023-08-20T01:22:13;18.30;81.87
77100;SHT31;66602;48.922;2.414;2023-08-20T01:24:59;18.21;82.70
77100;SHT31;66602;48.922;2.414;2023-08-20T01:30:14;18.16;82.76
77100;SHT31;66602;48.922;2.414;2023-08-20T01:32:40;18.16;82.76
77100;SHT31;66602;48.922;2.414;2023-08-20T01:35:11;18.08;82.99
77100;SHT31;66602;48.922;2.414;2023-08-20T01:37:39;18.01;83.18
77100;SHT31;66602;48.922;2.414;2023-08-20T01:40:04;17.98;83.29
77100;SHT31;66602;48.922;2.414;2023-08-20T01:42:32;17.93;83.74
77100;SHT31;66602;48.922;2.414;2023-08-20T01:44:57;17.90;84.22
77100;SHT31;66602;48.922;2.414;2023-08-20T01:47:23;17.89;84.33
77100;SHT31;66602;48.922;2.414;2023-08-20T01:49:48;17.91;84.00
77100;SHT31;66602;48.922;2.414;2023-08-20T01:52:14;17.91;83.96
77100;SHT31;66602;48.922;2.414;2023-08-20T01:54:39;17.91;84.19
77100;SHT31;66602;48.922;2.414;2023-08-20T01:57:05;17.86;84.39
77100;SHT31;66602;48.922;2.414;2023-08-20T01:59:30;17.86;84.78
77100;SHT31;66602;48.922;2.414;2023-08-20T02:01:56;17.85;84.53
77100;SHT31;66602;48.922;2.414;2023-08-20T02:04:21;17.77;84.83
77100;SHT31;66602;48.922;2.414;2023-08-20T02:06:47;17.75;84.81
77100;SHT31;66602;48.922;2.414;2023-08-20T02:09:12;17.69;85.05
77100;SHT31;66602;48.922;2.414;2023-08-20T02:11:38;17.68;85.25
77100;SHT31;66602;48.922;2.414;2023-08-20T02:14:03;17.68;85.34
77100;SHT31;66602;48.922;2.414;2023-08-20T02:16:29;17.59;85.46
77100;SHT31;66602;48.922;2.414;2023-08-20T02:18:54;17.59;85.53
77100;SHT31;66602;48.922;2.414;2023-08-20T02:21:20;17.61;85.69
77100;SHT31;66602;48.922;2.414;2023-08-20T02:23:45;17.55;85.75
77100;SHT31;66602;48.922;2.414;2023-08-20T02:26:11;17.53;85.81
77100;SHT31;66602;48.922;2.414;2023-08-20T02:28:36;17.55;86.00
77100;SHT31;66602;48.922;2.414;2023-08-20T02:31:04;17.50;86.09
77100;SHT31;66602;48.922;2.414;2023-08-20T02:33:30;17.46;86.21
77100;SHT31;66602;48.922;2.414;2023-08-20T02:36:01;17.45;86.36
77100;SHT31;66602;48.922;2.414;2023-08-20T02:38:27;17.45;86.52
77100;SHT31;66602;48.922;2.414;2023-08-20T02:40:52;17.46;86.65
77100;SHT31;66602;48.922;2.414;2023-08-20T02:43:18;17.48;86.72
77100;SHT31;66602;48.922;2.414;2023-08-20T02:45:43;17.48;86.82
77100;SHT31;66602;48.922;2.414;2023-08-20T02:48:09;17.45;86.76
77100;SHT31;66602;48.922;2.414;2023-08-20T02:50:35;17.48;86.48
77100;SHT31;66602;48.922;2.414;2023-08-20T02:53:00;17.43;86.59
77100;SHT31;66602;48.922;2.414;2023-08-20T02:55:26;17.40;86.93
77100;SHT31;66602;48.922;2.414;2023-08-20T02:57:51;17.38;87.19
77100;SHT31;66602;48.922;2.414;2023-08-20T03:00:17;17.39;87.14
77100;SHT31;66602;48.922;2.414;2023-08-20T03:02:42;17.32;86.90
77100;SHT31;66602;48.922;2.414;2023-08-20T03:05:10;17.25;87.17
77100;SHT31;66602;48.922;2.414;2023-08-20T03:07:35;17.22;87.30
77100;SHT31;66602;48.922;2.414;2023-08-20T03:10:01;17.19;87.57
77100;SHT31;66602;48.922;2.414;2023-08-20T03:12:28;17.19;87.49
77100;SHT31;66602;48.922;2.414;2023-08-20T03:14:54;17.19;87.54
77100;SHT31;66602;48.922;2.414;2023-08-20T03:17:20;17.19;87.86
77100;SHT31;66602;48.922;2.414;2023-08-20T03:19:55;17.19;87.83
77100;SHT31;66602;48.922;2.414;2023-08-20T03:22:22;17.18;87.76
77100;SHT31;66602;48.922;2.414;2023-08-20T03:24:47;17.12;87.87
77100;SHT31;66602;48.922;2.414;2023-08-20T03:27:13;17.07;88.14
77100;SHT31;66602;48.922;2.414;2023-08-20T03:29:38;17.10;88.09
77100;SHT31;66602;48.922;2.414;2023-08-20T03:32:04;17.08;88.00
77100;SHT31;66602;48.922;2.414;2023-08-20T03:34:29;17.06;88.14
77100;SHT31;66602;48.922;2.414;2023-08-20T03:36:55;17.01;88.02
77100;SHT31;66602;48.922;2.414;2023-08-20T03:39:21;16.98;88.23
77100;SHT31;66602;48.922;2.414;2023-08-20T03:41:46;16.94;88.39
77100;SHT31;66602;48.922;2.414;2023-08-20T03:44:12;16.92;88.42
77100;SHT31;66602;48.922;2.414;2023-08-20T03:46:37;16.88;88.59
77100;SHT31;66602;48.922;2.414;2023-08-20T03:49:03;16.87;88.60
77100;SHT31;66602;48.922;2.414;2023-08-20T03:51:28;16.84;88.77
77100;SHT31;66602;48.922;2.414;2023-08-20T03:53:54;16.81;88.83
77100;SHT31;66602;48.922;2.414;2023-08-20T03:56:19;16.83;88.70
77100;SHT31;66602;48.922;2.414;2023-08-20T03:58:45;16.81;88.99
77100;SHT31;66602;48.922;2.414;2023-08-20T04:01:10;16.77;89.06
77100;SHT31;66602;48.922;2.414;2023-08-20T04:03:36;16.77;89.10
77100;SHT31;66602;48.922;2.414;2023-08-20T04:06:02;16.76;89.17
77100;SHT31;66602;48.922;2.414;2023-08-20T04:08:29;16.73;89.50
77100;SHT31;66602;48.922;2.414;2023-08-20T04:10:54;16.71;89.60
77100;SHT31;66602;48.922;2.414;2023-08-20T04:13:20;16.74;89.62
77100;SHT31;66602;48.922;2.414;2023-08-20T04:15:46;16.70;89.54
77100;SHT31;66602;48.922;2.414;2023-08-20T04:18:12;16.69;89.68
77100;SHT31;66602;48.922;2.414;2023-08-20T04:20:37;16.74;89.89
77100;SHT31;66602;48.922;2.414;2023-08-20T04:23:03;16.81;89.90
77100;SHT31;66602;48.922;2.414;2023-08-20T04:25:28;16.87;89.57
77100;SHT31;66602;48.922;2.414;2023-08-20T04:27:54;16.88;89.12
77100;SHT31;66602;48.922;2.414;2023-08-20T04:30:19;16.87;89.12
77100;SHT31;66602;48.922;2.414;2023-08-20T04:32:45;16.84;89.17
77100;SHT31;66602;48.922;2.414;2023-08-20T04:35:10;16.80;89.34
77100;SHT31;66602;48.922;2.414;2023-08-20T04:37:36;16.80;89.28
77100;SHT31;66602;48.922;2.414;2023-08-20T04:40:02;16.81;89.52
77100;SHT31;66602;48.922;2.414;2023-08-20T04:42:31;16.85;89.55
77100;SHT31;66602;48.922;2.414;2023-08-20T04:44:56;16.83;89.49
77100;SHT31;66602;48.922;2.414;2023-08-20T04:47:22;16.81;89.47
77100;SHT31;66602;48.922;2.414;2023-08-20T04:49:47;16.84;89.40
77100;SHT31;66602;48.922;2.414;2023-08-20T04:52:13;16.88;89.37
77100;SHT31;66602;48.922;2.414;2023-08-20T04:54:38;16.87;89.27
77100;SHT31;66602;48.922;2.414;2023-08-20T04:57:04;16.84;89.30
77100;SHT31;66602;48.922;2.414;2023-08-20T04:59:29;16.83;89.39
77100;SHT31;66602;48.922;2.414;2023-08-20T05:01:55;16.83;89.54
77100;SHT31;66602;48.922;2.414;2023-08-20T05:04:20;16.83;89.57
77100;SHT31;66602;48.922;2.414;2023-08-20T05:06:46;16.83;89.61
77100;SHT31;66602;48.922;2.414;2023-08-20T05:09:11;16.84;89.68
77100;SHT31;66602;48.922;2.414;2023-08-20T05:11:37;16.84;89.72
77100;SHT31;66602;48.922;2.414;2023-08-20T05:14:03;16.88;89.63
77100;SHT31;66602;48.922;2.414;2023-08-20T05:16:28;16.90;89.49
77100;SHT31;66602;48.922;2.414;2023-08-20T05:18:54;16.90;89.46
77100;SHT31;66602;48.922;2.414;2023-08-20T05:21:20;16.95;89.43
77100;SHT31;66602;48.922;2.414;2023-08-20T05:23:45;17.03;89.36
77100;SHT31;66602;48.922;2.414;2023-08-20T05:26:11;17.03;89.30
77100;SHT31;66602;48.922;2.414;2023-08-20T05:28:36;17.07;89.18
77100;SHT31;66602;48.922;2.414;2023-08-20T05:31:01;17.12;89.09
77100;SHT31;66602;48.922;2.414;2023-08-20T05:33:27;17.12;89.06
77100;SHT31;66602;48.922;2.414;2023-08-20T05:35:52;17.18;88.90
77100;SHT31;66602;48.922;2.414;2023-08-20T05:38:18;17.27;88.70
77100;SHT31;66602;48.922;2.414;2023-08-20T05:40:43;17.34;88.61
77100;SHT31;66602;48.922;2.414;2023-08-20T05:43:09;17.36;88.46
77100;SHT31;66602;48.922;2.414;2023-08-20T05:45:35;17.39;88.35
77100;SHT31;66602;48.922;2.414;2023-08-20T05:48:00;17.43;88.38
77100;SHT31;66602;48.922;2.414;2023-08-20T05:50:26;17.48;88.16
77100;SHT31;66602;48.922;2.414;2023-08-20T05:52:52;17.55;88.07
77100;SHT31;66602;48.922;2.414;2023-08-20T05:55:17;17.59;87.93
77100;SHT31;66602;48.922;2.414;2023-08-20T05:57:43;17.65;87.71
77100;SHT31;66602;48.922;2.414;2023-08-20T06:00:09;17.72;87.42
77100;SHT31;66602;48.922;2.414;2023-08-20T06:02:36;17.80;87.55
77100;SHT31;66602;48.922;2.414;2023-08-20T06:05:02;17.90;87.24
77100;SHT31;66602;48.922;2.414;2023-08-20T06:07:30;17.98;86.50
77100;SHT31;66602;48.922;2.414;2023-08-20T06:09:55;18.06;86.23
77100;SHT31;66602;48.922;2.414;2023-08-20T06:12:22;18.14;86.24
77100;SHT31;66602;48.922;2.414;2023-08-20T06:14:48;18.26;85.81
77100;SHT31;66602;48.922;2.414;2023-08-20T06:17:13;18.37;85.29
77100;SHT31;66602;48.922;2.414;2023-08-20T06:19:39;18.43;85.51
77100;SHT31;66602;48.922;2.414;2023-08-20T06:22:04;18.47;85.25
77100;SHT31;66602;48.922;2.414;2023-08-20T06:24:30;18.54;85.11
77100;SHT31;66602;48.922;2.414;2023-08-20T06:26:55;18.59;85.26
77100;SHT31;66602;48.922;2.414;2023-08-20T06:29:21;18.71;84.84
77100;SHT31;66602;48.922;2.414;2023-08-20T06:31:49;18.78;84.46
77100;SHT31;66602;48.922;2.414;2023-08-20T06:34:16;18.89;84.06
77100;SHT31;66602;48.922;2.414;2023-08-20T06:36:41;19.02;83.42
77100;SHT31;66602;48.922;2.414;2023-08-20T06:39:07;19.07;83.56
77100;SHT31;66602;48.922;2.414;2023-08-20T06:41:33;19.15;83.43
77100;SHT31;66602;48.922;2.414;2023-08-20T06:43:59;19.23;83.03
77100;SHT31;66602;48.922;2.414;2023-08-20T06:46:24;19.28;83.08
77100;SHT31;66602;48.922;2.414;2023-08-20T06:48:50;19.36;83.14
77100;SHT31;66602;48.922;2.414;2023-08-20T06:51:19;19.47;82.88
77100;SHT31;66602;48.922;2.414;2023-08-20T06:53:45;19.57;82.03
77100;SHT31;66602;48.922;2.414;2023-08-20T06:56:10;19.67;81.78
77100;SHT31;66602;48.922;2.414;2023-08-20T06:58:40;19.82;81.60
77100;SHT31;66602;48.922;2.414;2023-08-20T07:01:06;19.96;80.91
77100;SHT31;66602;48.922;2.414;2023-08-20T07:03:37;20.37;79.04
77100;SHT31;66602;48.922;2.414;2023-08-20T07:06:04;20.72;78.96
77100;SHT31;66602;48.922;2.414;2023-08-20T07:08:30;21.88;75.24
77100;SHT31;66602;48.922;2.414;2023-08-20T07:10:55;23.78;70.07
77100;SHT31;66602;48.922;2.414;2023-08-20T07:13:22;25.86;63.16
77100;SHT31;66602;48.922;2.414;2023-08-20T07:15:48;27.79;56.59
77100;SHT31;66602;48.922;2.414;2023-08-20T07:18:13;29.34;53.26
77100;SHT31;66602;48.922;2.414;2023-08-20T07:20:42;30.23;48.57
77100;SHT31;66602;48.922;2.414;2023-08-20T07:23:08;30.97;48.07
77100;SHT31;66602;48.922;2.414;2023-08-20T07:25:36;31.78;46.23
77100;SHT31;66602;48.922;2.414;2023-08-20T07:28:03;32.24;43.68
77100;SHT31;66602;48.922;2.414;2023-08-20T07:30:28;32.44;44.60
77100;SHT31;66602;48.922;2.414;2023-08-20T07:32:54;32.75;44.24
77100;SHT31;66602;48.922;2.414;2023-08-20T07:35:20;33.26;43.80
77100;SHT31;66602;48.922;2.414;2023-08-20T07:37:45;33.22;41.81
77100;SHT31;66602;48.922;2.414;2023-08-20T07:40:12;33.19;42.17
77100;SHT31;66602;48.922;2.414;2023-08-20T07:42:39;33.42;42.49
77100;SHT31;66602;48.922;2.414;2023-08-20T07:45:05;33.77;40.73
77100;SHT31;66602;48.922;2.414;2023-08-20T07:47:31;34.03;40.45
77100;SHT31;66602;48.922;2.414;2023-08-20T07:49:56;33.97;41.95
77100;SHT31;66602;48.922;2.414;2023-08-20T07:52:22;34.44;41.20
77100;SHT31;66602;48.922;2.414;2023-08-20T07:54:47;34.99;39.95
77100;SHT31;66602;48.922;2.414;2023-08-20T07:57:13;34.88;40.11
77100;SHT31;66602;48.922;2.414;2023-08-20T07:59:39;35.22;39.76
77100;SHT31;66602;48.922;2.414;2023-08-20T08:02:05;35.80;39.97
77100;SHT31;66602;48.922;2.414;2023-08-20T08:04:30;36.18;37.65
77100;SHT31;66602;48.922;2.414;2023-08-20T08:06:56;36.11;38.55
77100;SHT31;66602;48.922;2.414;2023-08-20T08:09:27;36.59;37.93
77100;SHT31;66602;48.922;2.414;2023-08-20T08:11:53;36.66;37.51
77100;SHT31;66602;48.922;2.414;2023-08-20T08:14:19;36.55;39.27
77100;SHT31;66602;48.922;2.414;2023-08-20T08:16:45;36.35;39.16
77100;SHT31;66602;48.922;2.414;2023-08-20T08:19:11;36.80;37.07
77100;SHT31;66602;48.922;2.414;2023-08-20T08:21:37;36.82;38.71
77100;SHT31;66602;48.922;2.414;2023-08-20T08:24:03;36.76;37.71
77100;SHT31;66602;48.922;2.414;2023-08-20T08:26:29;37.08;38.56
77100;SHT31;66602;48.922;2.414;2023-08-20T08:28:55;37.85;37.75
77100;SHT31;66602;48.922;2.414;2023-08-20T08:31:20;38.11;36.79
77100;SHT31;66602;48.922;2.414;2023-08-20T08:33:46;38.94;35.11
77100;SHT31;66602;48.922;2.414;2023-08-20T08:36:12;38.88;35.83
77100;SHT31;66602;48.922;2.414;2023-08-20T08:38:38;38.94;36.54
77100;SHT31;66602;48.922;2.414;2023-08-20T08:41:05;39.53;34.72
77100;SHT31;66602;48.922;2.414;2023-08-20T08:43:34;39.44;33.78
77100;SHT31;66602;48.922;2.414;2023-08-20T08:46:01;39.58;34.23
77100;SHT31;66602;48.922;2.414;2023-08-20T08:48:28;39.41;33.73
77100;SHT31;66602;48.922;2.414;2023-08-20T08:50:54;38.94;35.29
77100;SHT31;66602;48.922;2.414;2023-08-20T08:53:21;38.33;36.61
77100;SHT31;66602;48.922;2.414;2023-08-20T08:55:47;37.74;36.80
77100;SHT31;66602;48.922;2.414;2023-08-20T08:58:13;38.50;35.47
77100;SHT31;66602;48.922;2.414;2023-08-20T09:00:38;38.93;34.04
77100;SHT31;66602;48.922;2.414;2023-08-20T09:03:04;38.73;35.72
77100;SHT31;66602;48.922;2.414;2023-08-20T09:05:29;39.17;34.75
77100;SHT31;66602;48.922;2.414;2023-08-20T09:07:56;38.90;34.73
77100;SHT31;66602;48.922;2.414;2023-08-20T09:10:26;38.47;37.24
77100;SHT31;66602;48.922;2.414;2023-08-20T09:12:54;36.87;37.72
77100;SHT31;66602;48.922;2.414;2023-08-20T09:15:19;37.27;37.33
77100;SHT31;66602;48.922;2.414;2023-08-20T09:17:46;37.92;36.48
77100;SHT31;66602;48.922;2.414;2023-08-20T09:20:11;38.29;35.69
77100;SHT31;66602;48.922;2.414;2023-08-20T09:22:37;38.81;35.62
77100;SHT31;66602;48.922;2.414;2023-08-20T09:25:03;39.73;35.99
77100;SHT31;66602;48.922;2.414;2023-08-20T09:27:29;40.27;32.64
77100;SHT31;66602;48.922;2.414;2023-08-20T09:29:56;40.24;33.89
77100;SHT31;66602;48.922;2.414;2023-08-20T09:32:25;40.29;33.43
77100;SHT31;66602;48.922;2.414;2023-08-20T09:34:53;40.21;34.57
77100;SHT31;66602;48.922;2.414;2023-08-20T09:37:20;40.37;33.69
77100;SHT31;66602;48.922;2.414;2023-08-20T09:39:46;40.99;31.97
77100;SHT31;66602;48.922;2.414;2023-08-20T09:42:12;41.66;31.83
77100;SHT31;66602;48.922;2.414;2023-08-20T09:44:40;41.29;32.04
77100;SHT31;66602;48.922;2.414;2023-08-20T09:47:11;39.77;33.48
77100;SHT31;66602;48.922;2.414;2023-08-20T09:49:48;39.32;34.20
77100;SHT31;66602;48.922;2.414;2023-08-20T09:52:39;38.77;35.21
77100;SHT31;66602;48.922;2.414;2023-08-20T09:55:16;39.32;36.05
77100;SHT31;66602;48.922;2.414;2023-08-20T09:57:43;39.11;37.11
77100;SHT31;66602;48.922;2.414;2023-08-20T10:00:10;37.67;35.54
77100;SHT31;66602;48.922;2.414;2023-08-20T10:02:37;38.83;34.72
77100;SHT31;66602;48.922;2.414;2023-08-20T10:05:06;39.46;33.82
77100;SHT31;66602;48.922;2.414;2023-08-20T10:07:33;39.88;33.96
77100;SHT31;66602;48.922;2.414;2023-08-20T10:10:04;38.11;36.37
77100;SHT31;66602;48.922;2.414;2023-08-20T10:12:31;39.90;34.30
77100;SHT31;66602;48.922;2.414;2023-08-20T10:14:58;40.16;33.96
77100;SHT31;66602;48.922;2.414;2023-08-20T10:17:24;40.39;33.93
77100;SHT31;66602;48.922;2.414;2023-08-20T10:19:53;41.15;33.19
77100;SHT31;66602;48.922;2.414;2023-08-20T10:22:19;41.47;32.37
77100;SHT31;66602;48.922;2.414;2023-08-20T10:24:52;40.94;30.61
77100;SHT31;66602;48.922;2.414;2023-08-20T10:27:30;40.20;31.88
77100;SHT31;66602;48.922;2.414;2023-08-20T10:29:58;40.54;32.94
77100;SHT31;66602;48.922;2.414;2023-08-20T10:35:14;36.60;37.09
77100;SHT31;66602;48.922;2.414;2023-08-20T10:38:00;37.90;35.24
77100;SHT31;66602;48.922;2.414;2023-08-20T10:40:51;39.58;32.89
77100;SHT31;66602;48.922;2.414;2023-08-20T10:43:46;39.53;34.26
77100;SHT31;66602;48.922;2.414;2023-08-20T10:46:22;40.24;32.67
77100;SHT31;66602;48.922;2.414;2023-08-20T10:48:51;40.41;31.66
77100;SHT31;66602;48.922;2.414;2023-08-20T10:51:27;40.43;33.81
77100;SHT31;66602;48.922;2.414;2023-08-20T10:56:45;40.82;30.85
77100;SHT31;66602;48.922;2.414;2023-08-20T10:59:15;40.17;31.90
77100;SHT31;66602;48.922;2.414;2023-08-20T11:01:45;39.04;33.97
77100;SHT31;66602;48.922;2.414;2023-08-20T11:04:11;40.02;32.11
77100;SHT31;66602;48.922;2.414;2023-08-20T11:06:38;37.96;35.32
77100;SHT31;66602;48.922;2.414;2023-08-20T11:09:04;38.97;33.33
77100;SHT31;66602;48.922;2.414;2023-08-20T11:11:31;40.30;32.77
77100;SHT31;66602;48.922;2.414;2023-08-20T11:14:03;41.18;30.59
77100;SHT31;66602;48.922;2.414;2023-08-20T11:16:29;39.05;32.99
77100;SHT31;66602;48.922;2.414;2023-08-20T11:18:56;39.42;31.84
77100;SHT31;66602;48.922;2.414;2023-08-20T11:21:23;38.56;33.98
77100;SHT31;66602;48.922;2.414;2023-08-20T11:23:48;37.28;34.96
77100;SHT31;66602;48.922;2.414;2023-08-20T11:26:14;39.11;33.15
77100;SHT31;66602;48.922;2.414;2023-08-20T11:28:45;39.26;32.31
77100;SHT31;66602;48.922;2.414;2023-08-20T11:31:10;39.39;32.09
77100;SHT31;66602;48.922;2.414;2023-08-20T11:33:36;40.02;31.74
77100;SHT31;66602;48.922;2.414;2023-08-20T11:36:02;39.97;31.12
77100;SHT31;66602;48.922;2.414;2023-08-20T11:38:27;39.97;31.61
77100;SHT31;66602;48.922;2.414;2023-08-20T11:40:53;40.68;30.10
77100;SHT31;66602;48.922;2.414;2023-08-20T11:43:19;41.26;30.31
77100;SHT31;66602;48.922;2.414;2023-08-20T11:45:48;39.93;32.69
77100;SHT31;66602;48.922;2.414;2023-08-20T11:48:16;40.91;30.45
77100;SHT31;66602;48.922;2.414;2023-08-20T11:50:42;39.45;33.01
77100;SHT31;66602;48.922;2.414;2023-08-20T11:53:09;37.53;35.13
77100;SHT31;66602;48.922;2.414;2023-08-20T11:55:38;39.48;33.01
77100;SHT31;66602;48.922;2.414;2023-08-20T11:58:04;40.82;32.59
77100;SHT31;66602;48.922;2.414;2023-08-20T12:00:31;41.28;30.47
77100;SHT31;66602;48.922;2.414;2023-08-20T12:02:57;37.45;34.77
77100;SHT31;66602;48.922;2.414;2023-08-20T12:05:29;36.19;37.96
77100;SHT31;66602;48.922;2.414;2023-08-20T12:07:56;34.73;38.81
77100;SHT31;66602;48.922;2.414;2023-08-20T12:10:23;34.44;41.59
77100;SHT31;66602;48.922;2.414;2023-08-20T12:12:49;37.24;38.56
77100;SHT31;66602;48.922;2.414;2023-08-20T12:15:15;36.29;37.08
77100;SHT31;66602;48.922;2.414;2023-08-20T12:17:41;35.69;37.79
77100;SHT31;66602;48.922;2.414;2023-08-20T12:20:07;34.21;40.26
77100;SHT31;66602;48.922;2.414;2023-08-20T12:22:38;34.43;40.17
77100;SHT31;66602;48.922;2.414;2023-08-20T12:25:05;33.98;41.33
77100;SHT31;66602;48.922;2.414;2023-08-20T12:27:30;33.53;44.55
77100;SHT31;66602;48.922;2.414;2023-08-20T12:29:56;35.55;40.13
77100;SHT31;66602;48.922;2.414;2023-08-20T12:32:21;37.93;34.83
77100;SHT31;66602;48.922;2.414;2023-08-20T12:34:47;38.74;33.42
77100;SHT31;66602;48.922;2.414;2023-08-20T12:37:12;37.35;34.72
77100;SHT31;66602;48.922;2.414;2023-08-20T12:39:38;37.18;35.64
77100;SHT31;66602;48.922;2.414;2023-08-20T12:42:03;38.13;34.36
77100;SHT31;66602;48.922;2.414;2023-08-20T12:44:29;38.56;33.43
77100;SHT31;66602;48.922;2.414;2023-08-20T12:46:54;38.13;33.81
77100;SHT31;66602;48.922;2.414;2023-08-20T12:49:20;36.63;35.71
77100;SHT31;66602;48.922;2.414;2023-08-20T12:51:45;35.84;38.17
77100;SHT31;66602;48.922;2.414;2023-08-20T12:54:11;36.91;35.83
77100;SHT31;66602;48.922;2.414;2023-08-20T12:56:36;38.05;34.73
77100;SHT31;66602;48.922;2.414;2023-08-20T12:59:02;39.22;35.51
77100;SHT31;66602;48.922;2.414;2023-08-20T13:01:28;38.59;33.41
77100;SHT31;66602;48.922;2.414;2023-08-20T13:03:54;38.45;33.97
77100;SHT31;66602;48.922;2.414;2023-08-20T13:06:20;39.04;33.80
77100;SHT31;66602;48.922;2.414;2023-08-20T13:08:46;37.72;34.21
77100;SHT31;66602;48.922;2.414;2023-08-20T13:11:13;36.32;36.90
77100;SHT31;66602;48.922;2.414;2023-08-20T13:13:42;35.60;37.39
77100;SHT31;66602;48.922;2.414;2023-08-20T13:16:08;34.62;39.13
77100;SHT31;66602;48.922;2.414;2023-08-20T13:18:34;37.31;34.83
77100;SHT31;66602;48.922;2.414;2023-08-20T13:21:00;35.60;37.61
77100;SHT31;66602;48.922;2.414;2023-08-20T13:23:26;34.81;39.08
77100;SHT31;66602;48.922;2.414;2023-08-20T13:25:51;36.15;36.28
77100;SHT31;66602;48.922;2.414;2023-08-20T13:28:17;37.30;34.98
77100;SHT31;66602;48.922;2.414;2023-08-20T13:30:43;38.62;35.29
77100;SHT31;66602;48.922;2.414;2023-08-20T13:33:09;39.05;32.16
77100;SHT31;66602;48.922;2.414;2023-08-20T13:35:34;38.97;33.76
77100;SHT31;66602;48.922;2.414;2023-08-20T13:38:00;37.28;34.21
77100;SHT31;66602;48.922;2.414;2023-08-20T13:40:25;36.09;36.22
77100;SHT31;66602;48.922;2.414;2023-08-20T13:42:51;35.36;37.38
77100;SHT31;66602;48.922;2.414;2023-08-20T13:45:16;34.58;38.78
77100;SHT31;66602;48.922;2.414;2023-08-20T13:47:42;33.47;41.11
77100;SHT31;66602;48.922;2.414;2023-08-20T13:50:09;33.11;41.06
77100;SHT31;66602;48.922;2.414;2023-08-20T13:52:35;33.21;41.20
77100;SHT31;66602;48.922;2.414;2023-08-20T13:55:01;32.71;43.25
77100;SHT31;66602;48.922;2.414;2023-08-20T13:57:27;32.87;42.39
77100;SHT31;66602;48.922;2.414;2023-08-20T13:59:53;34.81;38.91
77100;SHT31;66602;48.922;2.414;2023-08-20T14:02:18;36.22;38.86
77100;SHT31;66602;48.922;2.414;2023-08-20T14:04:44;36.28;35.67
77100;SHT31;66602;48.922;2.414;2023-08-20T14:07:09;35.17;37.54
77100;SHT31;66602;48.922;2.414;2023-08-20T14:09:35;33.97;40.33
77100;SHT31;66602;48.922;2.414;2023-08-20T14:12:01;33.28;42.27
77100;SHT31;66602;48.922;2.414;2023-08-20T14:14:27;32.85;42.50
77100;SHT31;66602;48.922;2.414;2023-08-20T14:16:52;32.68;42.44
77100;SHT31;66602;48.922;2.414;2023-08-20T14:19:18;33.15;41.98
77100;SHT31;66602;48.922;2.414;2023-08-20T14:21:43;32.97;42.84
77100;SHT31;66602;48.922;2.414;2023-08-20T14:24:09;32.71;43.11
77100;SHT31;66602;48.922;2.414;2023-08-20T14:26:34;35.06;38.58
77100;SHT31;66602;48.922;2.414;2023-08-20T14:29:01;34.85;39.49
77100;SHT31;66602;48.922;2.414;2023-08-20T14:31:26;34.71;39.10
77100;SHT31;66602;48.922;2.414;2023-08-20T14:33:52;33.81;40.42
77100;SHT31;66602;48.922;2.414;2023-08-20T14:36:17;33.53;40.26
77100;SHT31;66602;48.922;2.414;2023-08-20T14:38:43;33.43;40.35
77100;SHT31;66602;48.922;2.414;2023-08-20T14:41:08;33.43;41.16
77100;SHT31;66602;48.922;2.414;2023-08-20T14:43:34;33.22;41.48
77100;SHT31;66602;48.922;2.414;2023-08-20T14:45:59;33.08;41.55
77100;SHT31;66602;48.922;2.414;2023-08-20T14:48:25;32.95;42.25
77100;SHT31;66602;48.922;2.414;2023-08-20T14:50:51;32.58;43.30
77100;SHT31;66602;48.922;2.414;2023-08-20T14:53:17;32.38;43.14
77100;SHT31;66602;48.922;2.414;2023-08-20T14:55:44;32.16;44.37
77100;SHT31;66602;48.922;2.414;2023-08-20T14:58:09;31.99;44.31
77100;SHT31;66602;48.922;2.414;2023-08-20T15:00:35;31.86;44.76
77100;SHT31;66602;48.922;2.414;2023-08-20T15:03:01;31.39;44.25
77100;SHT31;66602;48.922;2.414;2023-08-20T15:05:28;31.41;44.99
77100;SHT31;66602;48.922;2.414;2023-08-20T15:07:54;31.72;44.06
77100;SHT31;66602;48.922;2.414;2023-08-20T15:10:20;31.48;44.18
77100;SHT31;66602;48.922;2.414;2023-08-20T15:12:45;31.63;43.66
77100;SHT31;66602;48.922;2.414;2023-08-20T15:15:11;31.62;44.12
77100;SHT31;66602;48.922;2.414;2023-08-20T15:17:37;31.90;43.06
77100;SHT31;66602;48.922;2.414;2023-08-20T15:20:03;32.64;42.52
77100;SHT31;66602;48.922;2.414;2023-08-20T15:22:38;33.56;39.43
77100;SHT31;66602;48.922;2.414;2023-08-20T15:25:04;33.56;40.51
77100;SHT31;66602;48.922;2.414;2023-08-20T15:27:35;33.29;40.43
77100;SHT31;66602;48.922;2.414;2023-08-20T15:30:01;32.74;41.51
77100;SHT31;66602;48.922;2.414;2023-08-20T15:32:28;32.54;42.20
77100;SHT31;66602;48.922;2.414;2023-08-20T15:34:53;32.95;41.68
77100;SHT31;66602;48.922;2.414;2023-08-20T15:37:19;33.53;39.91